Time;durP1;ratioP1;P1;durP2;ratioP2;P2;SDS_P1;SDS_P2;PMS_P1;PMS_P2;Temp;Humidity;BMP_temperature;BMP_pressure;BME280_temperature;BME280_humidity;BME280_pressure;Samples;Min_cycle;Max_cycle;Signal;HPM_P1;HPM_P2
2023/06/02 00:00:51;;;;;;;23.87;13.20;;;;;;;;;;5114658;28;20198;-80
2023/06/02 00:03:19;;;;;;;26.60;13.33;;;;;;;;;;5114588;28;20223;-80
2023/06/02 00:05:46;;;;;;;21.43;13.50;;;;;;;;;;5114757;28;20194;-81
2023/06/02 00:08:15;;;;;;;19.37;11.77;;;;;;;;;;5113919;28;20194;-80
2023/06/02 00:10:42;;;;;;;22.23;12.07;;;;;;;;;;5114749;28;20329;-81
2023/06/02 00:13:10;;;;;;;24.37;12.43;;;;;;;;;;5114628;28;20731;-80
2023/06/02 00:15:40;;;;;;;21.13;12.67;;;;;;;;;;5113842;28;20620;-80
2023/06/02 00:18:07;;;;;;;19.90;12.50;;;;;;;;;;5114479;27;20668;-79
2023/06/02 00:20:34;;;;;;;20.77;13.47;;;;;;;;;;5114576;28;20193;-80
2023/06/02 00:23:02;;;;;;;18.20;12.10;;;;;;;;;;5114748;28;20201;-80
2023/06/02 00:25:29;;;;;;;18.00;12.53;;;;;;;;;;5114699;28;20284;-79
2023/06/02 00:27:56;;;;;;;23.57;12.70;;;;;;;;;;5113730;28;20280;-80
2023/06/02 00:30:26;;;;;;;20.90;12.63;;;;;;;;;;5114691;28;20228;-80
2023/06/02 00:32:54;;;;;;;25.57;13.67;;;;;;;;;;5114349;28;20229;-79
2023/06/02 00:35:21;;;;;;;25.13;13.20;;;;;;;;;;5113919;28;20279;-80
2023/06/02 00:37:48;;;;;;;22.10;12.80;;;;;;;;;;5114235;28;20605;-80
2023/06/02 00:40:16;;;;;;;21.67;12.07;;;;;;;;;;5113958;28;20189;-80
2023/06/02 00:42:43;;;;;;;21.27;12.67;;;;;;;;;;5113928;28;20198;-80
2023/06/02 00:45:11;;;;;;;20.07;12.00;;;;;;;;;;5113919;28;20674;-81
2023/06/02 00:47:39;;;;;;;25.07;13.10;;;;;;;;;;5113964;28;20360;-80
2023/06/02 00:50:07;;;;;;;22.90;13.27;;;;;;;;;;5113617;28;20194;-80
2023/06/02 00:52:35;;;;;;;23.57;13.47;;;;;;;;;;5113505;28;20229;-80
2023/06/02 00:55:02;;;;;;;22.13;13.50;;;;;;;;;;5113497;28;20198;-80
2023/06/02 00:57:33;;;;;;;20.13;12.87;;;;;;;;;;5113781;28;20198;-80
2023/06/02 01:00:01;;;;;;;21.63;12.60;;;;;;;;;;5113844;28;20189;-81
2023/06/02 01:02:28;;;;;;;24.57;13.60;;;;;;;;;;5113846;27;20564;-79
2023/06/02 01:04:58;;;;;;;23.30;13.43;;;;;;;;;;5113453;28;20629;-80
2023/06/02 01:07:27;;;;;;;21.37;13.00;;;;;;;;;;5113323;28;20193;-79
2023/06/02 01:09:56;;;;;;;24.57;13.33;;;;;;;;;;5113437;28;20726;-79
2023/06/02 01:12:23;;;;;;;22.43;13.33;;;;;;;;;;5113297;28;20225;-80
2023/06/02 01:14:51;;;;;;;21.03;13.13;;;;;;;;;;5113416;28;20198;-80
2023/06/02 01:17:18;;;;;;;23.10;13.10;;;;;;;;;;5113410;28;20236;-80
2023/06/02 01:19:49;;;;;;;23.80;13.00;;;;;;;;;;5113532;28;20225;-80
2023/06/02 01:22:23;;;;;;;22.13;13.70;;;;;;;;;;5112902;28;20254;-79
2023/06/02 01:24:54;;;;;;;22.53;13.83;;;;;;;;;;5112959;27;20205;-79
2023/06/02 01:27:21;;;;;;;22.20;13.07;;;;;;;;;;5112946;28;20198;-80
2023/06/02 01:29:49;;;;;;;20.73;13.23;;;;;;;;;;5113411;28;20284;-79
2023/06/02 01:32:19;;;;;;;20.30;13.67;;;;;;;;;;5112791;28;20816;-79
2023/06/02 01:34:49;;;;;;;23.90;13.37;;;;;;;;;;5112718;28;20233;-80
2023/06/02 01:37:17;;;;;;;26.20;13.90;;;;;;;;;;5112765;28;20648;-80
2023/06/02 01:39:46;;;;;;;20.13;13.20;;;;;;;;;;5112713;28;20225;-80
2023/06/02 01:42:15;;;;;;;22.53;13.50;;;;;;;;;;5112680;28;20229;-80
2023/06/02 01:44:43;;;;;;;21.23;13.43;;;;;;;;;;5113048;28;20241;-80
2023/06/02 01:47:10;;;;;;;23.83;13.80;;;;;;;;;;5112876;28;20205;-80
2023/06/02 01:49:37;;;;;;;24.43;13.63;;;;;;;;;;5112760;28;20224;-80
2023/06/02 01:52:05;;;;;;;24.53;13.80;;;;;;;;;;5112712;28;20320;-79
2023/06/02 01:54:32;;;;;;;24.40;13.27;;;;;;;;;;5112306;28;20624;-80
2023/06/02 01:56:59;;;;;;;22.60;13.60;;;;;;;;;;5112632;28;20280;-79
2023/06/02 01:59:28;;;;;;;30.97;14.30;;;;;;;;;;5112639;28;20220;-79
2023/06/02 02:01:55;;;;;;;23.63;13.53;;;;;;;;;;5112053;28;20247;-79
2023/06/02 02:04:23;;;;;;;22.20;14.10;;;;;;;;;;5104028;28;20658;-79
2023/06/02 02:06:52;;;;;;;20.50;13.10;;;;;;;;;;5112539;28;20599;-79
2023/06/02 02:09:19;;;;;;;26.63;14.33;;;;;;;;;;5111750;28;20205;-79
2023/06/02 02:11:46;;;;;;;22.77;13.53;;;;;;;;;;5112204;28;20229;-79
2023/06/02 02:14:14;;;;;;;21.33;13.40;;;;;;;;;;5111738;28;20745;-79
2023/06/02 02:16:44;;;;;;;23.33;13.63;;;;;;;;;;5112443;28;20194;-80
2023/06/02 02:19:12;;;;;;;24.70;14.23;;;;;;;;;;5112244;28;20229;-79
2023/06/02 02:21:39;;;;;;;22.33;13.50;;;;;;;;;;5111796;28;20194;-80
2023/06/02 02:24:07;;;;;;;22.00;14.27;;;;;;;;;;5111878;28;20200;-80
2023/06/02 02:26:35;;;;;;;22.73;13.73;;;;;;;;;;5111694;28;20204;-80
2023/06/02 02:29:02;;;;;;;21.40;13.47;;;;;;;;;;5112375;28;20193;-79
2023/06/02 02:31:30;;;;;;;20.60;13.50;;;;;;;;;;5111448;28;20229;-79
2023/06/02 02:33:59;;;;;;;20.93;13.70;;;;;;;;;;5112144;28;20293;-80
2023/06/02 02:36:26;;;;;;;22.47;13.90;;;;;;;;;;5111409;28;20325;-80
2023/06/02 02:38:53;;;;;;;22.13;13.47;;;;;;;;;;5111435;28;20217;-80
2023/06/02 02:41:20;;;;;;;20.17;13.40;;;;;;;;;;5111812;28;20293;-79
2023/06/02 02:43:47;;;;;;;22.10;13.40;;;;;;;;;;5111802;28;20193;-79
2023/06/02 02:46:14;;;;;;;20.93;13.30;;;;;;;;;;5111887;28;20284;-80
2023/06/02 02:48:42;;;;;;;22.47;13.87;;;;;;;;;;5111648;28;20285;-79
2023/06/02 02:51:10;;;;;;;21.43;13.07;;;;;;;;;;5111198;28;20229;-79
2023/06/02 02:53:37;;;;;;;20.80;13.63;;;;;;;;;;5111884;28;20225;-80
2023/06/02 02:56:06;;;;;;;19.27;13.70;;;;;;;;;;5111510;28;20204;-80
2023/06/02 02:58:37;;;;;;;22.83;13.40;;;;;;;;;;5111839;28;20282;-78
2023/06/02 03:01:05;;;;;;;22.77;13.27;;;;;;;;;;5111819;28;20208;-79
2023/06/02 03:03:32;;;;;;;20.87;13.00;;;;;;;;;;5111785;28;20209;-79
2023/06/02 03:06:01;;;;;;;21.77;13.03;;;;;;;;;;5111229;28;20201;-79
2023/06/02 03:08:32;;;;;;;21.13;13.00;;;;;;;;;;5111379;28;20189;-79
2023/06/02 03:11:00;;;;;;;20.13;12.67;;;;;;;;;;5111785;28;20194;-80
2023/06/02 03:13:27;;;;;;;18.67;12.87;;;;;;;;;;5111243;28;20252;-80
2023/06/02 03:15:54;;;;;;;21.90;13.57;;;;;;;;;;5111303;28;20232;-79
2023/06/02 03:18:21;;;;;;;23.57;13.40;;;;;;;;;;5111923;28;20221;-78
2023/06/02 03:20:49;;;;;;;20.87;13.53;;;;;;;;;;5110961;28;20293;-79
2023/06/02 03:23:17;;;;;;;24.10;13.20;;;;;;;;;;5111217;28;20205;-79
2023/06/02 03:25:46;;;;;;;22.37;12.97;;;;;;;;;;5111361;28;20288;-79
2023/06/02 03:28:13;;;;;;;20.93;12.87;;;;;;;;;;5111746;28;20233;-80
2023/06/02 03:30:40;;;;;;;21.13;13.00;;;;;;;;;;5111506;28;20284;-80
2023/06/02 03:33:07;;;;;;;23.30;13.90;;;;;;;;;;5111250;28;20248;-80
2023/06/02 03:35:35;;;;;;;21.90;12.97;;;;;;;;;;5110607;28;20319;-80
2023/06/02 03:38:05;;;;;;;25.10;13.43;;;;;;;;;;5111553;28;20589;-80
2023/06/02 03:40:32;;;;;;;20.40;13.53;;;;;;;;;;5111376;28;20567;-80
2023/06/02 03:43:00;;;;;;;20.77;13.03;;;;;;;;;;5111223;28;20205;-80
2023/06/02 03:45:27;;;;;;;20.67;13.33;;;;;;;;;;5111159;28;20228;-81
2023/06/02 03:47:55;;;;;;;24.73;14.23;;;;;;;;;;5111452;28;20284;-79
2023/06/02 03:50:22;;;;;;;24.73;14.03;;;;;;;;;;5111901;28;20271;-79
2023/06/02 03:52:49;;;;;;;18.80;13.33;;;;;;;;;;5114756;28;20232;-79
2023/06/02 03:55:17;;;;;;;18.53;13.23;;;;;;;;;;5115085;28;20235;-80
2023/06/02 03:57:44;;;;;;;21.90;13.47;;;;;;;;;;5114896;27;20194;-80
2023/06/02 04:00:13;;;;;;;18.50;12.63;;;;;;;;;;5114835;28;20248;-79
2023/06/02 04:02:40;;;;;;;19.70;12.50;;;;;;;;;;5114790;28;20621;-79
2023/06/02 04:05:08;;;;;;;23.60;13.57;;;;;;;;;;5114573;28;20201;-79
2023/06/02 04:07:35;;;;;;;20.90;13.17;;;;;;;;;;5114908;28;20209;-79
2023/06/02 04:10:03;;;;;;;20.23;13.53;;;;;;;;;;5114898;28;20215;-80
2023/06/02 04:12:30;;;;;;;21.10;13.10;;;;;;;;;;5114200;28;20221;-79
2023/06/02 04:14:58;;;;;;;22.70;13.73;;;;;;;;;;5114959;28;20202;-79
2023/06/02 04:17:27;;;;;;;21.47;12.83;;;;;;;;;;5114239;28;20220;-79
2023/06/02 04:19:54;;;;;;;16.97;13.40;;;;;;;;;;5113802;28;20292;-79
2023/06/02 04:22:21;;;;;;;20.80;13.63;;;;;;;;;;5114105;28;20204;-79
2023/06/02 04:24:48;;;;;;;21.23;14.07;;;;;;;;;;5114244;28;20232;-79
2023/06/02 04:27:15;;;;;;;23.33;13.53;;;;;;;;;;5114105;28;20292;-79
2023/06/02 04:29:43;;;;;;;20.87;13.67;;;;;;;;;;5114851;28;20287;-79
2023/06/02 04:32:10;;;;;;;24.80;13.67;;;;;;;;;;5113594;28;20277;-79
2023/06/02 04:34:39;;;;;;;20.70;14.17;;;;;;;;;;5113828;28;20739;-79
2023/06/02 04:37:07;;;;;;;20.23;13.87;;;;;;;;;;5114498;28;20194;-79
2023/06/02 04:39:36;;;;;;;22.50;13.63;;;;;;;;;;5113866;28;20250;-80
2023/06/02 04:42:03;;;;;;;22.87;14.43;;;;;;;;;;5114193;28;20677;-79
2023/06/02 04:44:31;;;;;;;22.37;14.63;;;;;;;;;;5114079;28;20289;-79
2023/06/02 04:46:58;;;;;;;21.87;14.37;;;;;;;;;;5113588;28;20200;-77
2023/06/02 04:49:26;;;;;;;23.80;14.53;;;;;;;;;;5113758;28;20251;-79
2023/06/02 04:51:55;;;;;;;23.00;15.13;;;;;;;;;;5114275;27;20211;-79
2023/06/02 04:54:22;;;;;;;25.33;15.20;;;;;;;;;;5114226;28;20229;-78
2023/06/02 04:56:49;;;;;;;21.83;14.80;;;;;;;;;;5113723;28;20204;-79
2023/06/02 04:59:17;;;;;;;22.80;15.37;;;;;;;;;;5113582;28;20201;-80
2023/06/02 05:01:44;;;;;;;21.50;15.03;;;;;;;;;;5112424;28;20635;-79
2023/06/02 05:04:21;;;;;;;21.87;14.87;;;;;;;;;;5112257;27;20217;-80
2023/06/02 05:06:48;;;;;;;22.57;15.77;;;;;;;;;;5120590;27;20189;-79
2023/06/02 05:09:17;;;;;;;22.13;15.40;;;;;;;;;;5099472;28;20285;-80
2023/06/02 05:11:45;;;;;;;22.53;15.47;;;;;;;;;;5114159;28;20204;-80
2023/06/02 05:14:12;;;;;;;25.13;15.77;;;;;;;;;;5113032;28;20713;-80
2023/06/02 05:16:43;;;;;;;20.53;15.83;;;;;;;;;;5112704;28;20285;-79
2023/06/02 05:19:11;;;;;;;23.43;15.97;;;;;;;;;;5113202;27;20545;-79
2023/06/02 05:21:38;;;;;;;22.27;15.77;;;;;;;;;;5113253;28;20225;-80
2023/06/02 05:24:05;;;;;;;24.13;16.23;;;;;;;;;;5113124;28;20284;-79
2023/06/02 05:26:34;;;;;;;20.97;15.30;;;;;;;;;;5113634;28;20190;-79
2023/06/02 05:29:01;;;;;;;19.97;15.43;;;;;;;;;;5113494;27;20231;-80
2023/06/02 05:31:28;;;;;;;21.83;16.53;;;;;;;;;;5112102;28;20205;-80
2023/06/02 05:33:56;;;;;;;20.23;15.90;;;;;;;;;;5112608;28;20705;-79
2023/06/02 05:36:23;;;;;;;20.73;15.57;;;;;;;;;;5112722;28;20674;-80
2023/06/02 05:38:50;;;;;;;20.37;15.87;;;;;;;;;;5112076;28;20190;-79
2023/06/02 05:41:17;;;;;;;21.37;15.13;;;;;;;;;;5112239;28;20293;-81
2023/06/02 05:43:46;;;;;;;22.50;16.13;;;;;;;;;;5110335;28;20296;-79
2023/06/02 05:46:13;;;;;;;21.47;15.33;;;;;;;;;;5111820;28;20317;-80
2023/06/02 05:48:40;;;;;;;18.53;14.97;;;;;;;;;;5113203;27;20186;-79
2023/06/02 05:51:07;;;;;;;21.57;15.30;;;;;;;;;;5112486;27;20194;-77
2023/06/02 05:53:34;;;;;;;16.87;13.90;;;;;;;;;;5112095;28;20756;-78
2023/06/02 05:56:02;;;;;;;18.00;14.80;;;;;;;;;;5112083;28;20773;-78
2023/06/02 05:58:29;;;;;;;20.30;14.73;;;;;;;;;;5112608;28;20281;-78
2023/06/02 06:00:58;;;;;;;21.17;15.13;;;;;;;;;;5111830;28;20675;-78
2023/06/02 06:03:25;;;;;;;19.80;14.97;;;;;;;;;;5112402;28;20219;-78
2023/06/02 06:05:52;;;;;;;16.77;14.03;;;;;;;;;;5112812;28;20288;-78
2023/06/02 06:08:19;;;;;;;18.57;14.17;;;;;;;;;;5112695;28;20222;-78
2023/06/02 06:10:46;;;;;;;18.33;13.43;;;;;;;;;;5112386;28;20288;-78
2023/06/02 06:13:13;;;;;;;16.67;13.23;;;;;;;;;;5111660;28;20316;-78
2023/06/02 06:15:41;;;;;;;16.43;13.00;;;;;;;;;;5111505;28;20251;-79
2023/06/02 06:18:09;;;;;;;14.97;12.53;;;;;;;;;;5112296;28;20700;-78
2023/06/02 06:20:37;;;;;;;19.47;13.60;;;;;;;;;;5111951;28;20225;-78
2023/06/02 06:23:04;;;;;;;16.33;13.00;;;;;;;;;;5112746;28;20286;-77
2023/06/02 06:25:31;;;;;;;16.73;13.57;;;;;;;;;;5112455;28;20281;-78
2023/06/02 06:27:58;;;;;;;17.57;13.83;;;;;;;;;;5112172;28;20285;-78
2023/06/02 06:30:25;;;;;;;18.87;13.70;;;;;;;;;;5112252;28;20278;-79
2023/06/02 06:32:52;;;;;;;19.10;13.90;;;;;;;;;;5112279;28;20276;-78
2023/06/02 06:35:21;;;;;;;17.13;12.60;;;;;;;;;;5111976;28;20607;-77
2023/06/02 06:37:48;;;;;;;15.67;12.67;;;;;;;;;;5112256;28;20200;-76
2023/06/02 06:40:16;;;;;;;13.70;11.53;;;;;;;;;;5112094;28;20292;-78
2023/06/02 06:42:43;;;;;;;18.67;12.00;;;;;;;;;;5111996;28;20198;-77
2023/06/02 06:45:10;;;;;;;14.03;11.30;;;;;;;;;;5111970;28;20723;-77
2023/06/02 06:47:37;;;;;;;16.07;12.10;;;;;;;;;;5109314;28;20236;-77
2023/06/02 06:50:05;;;;;;;14.50;12.23;;;;;;;;;;5120816;27;20292;-78
2023/06/02 06:52:33;;;;;;;14.83;12.17;;;;;;;;;;5117779;27;20776;-77
2023/06/02 06:55:00;;;;;;;15.27;12.10;;;;;;;;;;5118099;28;20312;-78
2023/06/02 06:57:28;;;;;;;15.53;12.40;;;;;;;;;;5120356;28;20288;-78
2023/06/02 06:59:55;;;;;;;15.20;11.53;;;;;;;;;;5113594;28;20280;-77
2023/06/02 07:02:23;;;;;;;17.13;12.40;;;;;;;;;;5111250;28;20276;-78
2023/06/02 07:04:50;;;;;;;18.03;12.50;;;;;;;;;;5111518;28;20709;-79
2023/06/02 07:07:17;;;;;;;17.33;12.40;;;;;;;;;;5111194;28;20296;-78
2023/06/02 07:09:45;;;;;;;17.63;12.27;;;;;;;;;;5111530;28;20660;-78
2023/06/02 07:12:13;;;;;;;17.60;12.57;;;;;;;;;;5120331;28;20229;-78
2023/06/02 07:14:40;;;;;;;17.43;12.40;;;;;;;;;;5111872;28;20217;-78
2023/06/02 07:17:07;;;;;;;15.60;12.13;;;;;;;;;;5111353;28;20190;-77
2023/06/02 07:19:34;;;;;;;16.27;11.73;;;;;;;;;;5111069;28;20226;-78
2023/06/02 07:22:02;;;;;;;16.47;11.67;;;;;;;;;;5110913;28;20247;-78
2023/06/02 07:24:29;;;;;;;17.40;12.13;;;;;;;;;;5116742;28;20733;-78
2023/06/02 07:26:57;;;;;;;15.13;11.50;;;;;;;;;;5115016;28;20205;-79
2023/06/02 07:29:25;;;;;;;13.00;11.37;;;;;;;;;;5115392;28;20194;-79
2023/06/02 07:31:52;;;;;;;15.17;11.90;;;;;;;;;;5115407;28;20296;-78
2023/06/02 07:34:19;;;;;;;12.73;10.57;;;;;;;;;;5114857;28;20310;-78
2023/06/02 07:36:47;;;;;;;14.37;10.60;;;;;;;;;;5115326;28;20194;-78
2023/06/02 07:39:15;;;;;;;14.07;10.23;;;;;;;;;;5114959;28;20293;-79
2023/06/02 07:41:42;;;;;;;14.13;9.97;;;;;;;;;;5114771;28;20197;-79
2023/06/02 07:44:11;;;;;;;12.80;10.93;;;;;;;;;;5115238;28;20204;-78
2023/06/02 07:46:38;;;;;;;12.97;10.13;;;;;;;;;;5115492;28;20285;-78
2023/06/02 07:49:05;;;;;;;13.23;10.93;;;;;;;;;;5115019;28;20251;-78
2023/06/02 07:51:32;;;;;;;12.33;10.17;;;;;;;;;;5115483;27;20863;-79
2023/06/02 07:53:59;;;;;;;12.30;10.67;;;;;;;;;;5112386;27;20697;-78
2023/06/02 07:56:27;;;;;;;15.20;11.00;;;;;;;;;;5114408;28;20221;-78
2023/06/02 07:58:54;;;;;;;12.03;10.63;;;;;;;;;;5115114;28;20198;-78
2023/06/02 08:01:22;;;;;;;14.13;11.10;;;;;;;;;;5114701;28;20293;-78
2023/06/02 08:03:50;;;;;;;15.37;11.10;;;;;;;;;;5114871;28;20284;-78
2023/06/02 08:06:17;;;;;;;13.03;9.93;;;;;;;;;;5115297;28;20250;-78
2023/06/02 08:08:45;;;;;;;13.15;10.23;;;;;;;;;;5114829;28;20288;-78
2023/06/02 08:11:12;;;;;;;11.57;10.00;;;;;;;;;;5114232;28;20194;-77
2023/06/02 08:13:39;;;;;;;11.73;9.77;;;;;;;;;;5114642;28;20320;-78
2023/06/02 08:16:06;;;;;;;13.38;10.13;;;;;;;;;;5114379;28;20198;-78
2023/06/02 08:18:35;;;;;;;12.32;9.55;;;;;;;;;;5114764;27;20190;-78
2023/06/02 08:21:04;;;;;;;11.73;9.52;;;;;;;;;;5114399;28;20197;-79
2023/06/02 08:23:32;;;;;;;15.07;9.77;;;;;;;;;;5114725;28;20197;-79
2023/06/02 08:25:59;;;;;;;10.75;9.50;;;;;;;;;;5114265;28;20202;-78
2023/06/02 08:28:29;;;;;;;15.27;9.88;;;;;;;;;;5114618;27;20232;-78
2023/06/02 08:30:58;;;;;;;12.80;9.43;;;;;;;;;;5114410;28;20194;-79
2023/06/02 08:33:25;;;;;;;12.35;10.32;;;;;;;;;;5114357;28;20202;-78
2023/06/02 08:35:55;;;;;;;13.27;10.25;;;;;;;;;;5114185;28;20257;-79
2023/06/02 08:38:22;;;;;;;12.57;9.95;;;;;;;;;;5113453;28;20204;-78
2023/06/02 08:40:50;;;;;;;11.60;10.25;;;;;;;;;;5113906;28;20284;-78
2023/06/02 08:43:17;;;;;;;12.57;9.43;;;;;;;;;;5114527;28;20194;-79
2023/06/02 08:45:45;;;;;;;10.70;9.57;;;;;;;;;;5114398;28;20281;-79
2023/06/02 08:48:15;;;;;;;12.43;9.20;;;;;;;;;;5114079;27;20289;-79
2023/06/02 08:50:43;;;;;;;13.30;9.65;;;;;;;;;;5113911;28;20546;-79
2023/06/02 08:53:12;;;;;;;12.25;9.68;;;;;;;;;;5113811;28;20204;-78
2023/06/02 08:55:41;;;;;;;11.23;9.63;;;;;;;;;;5114013;27;20320;-79
2023/06/02 08:58:09;;;;;;;12.38;9.70;;;;;;;;;;5114215;28;20194;-78
2023/06/02 09:00:37;;;;;;;13.63;10.07;;;;;;;;;;5113864;28;20749;-78
2023/06/02 09:03:04;;;;;;;10.00;8.90;;;;;;;;;;5113850;28;20614;-79
2023/06/02 09:05:32;;;;;;;12.52;9.52;;;;;;;;;;5113579;28;20197;-78
2023/06/02 09:08:17;;;;;;;11.75;9.50;;;;;;;;;;5113275;27;20285;-78
2023/06/02 09:10:48;;;;;;;13.70;9.32;;;;;;;;;;5113495;28;20286;-80
2023/06/02 09:13:29;;;;;;;9.95;8.98;;;;;;;;;;5114032;27;20190;-79
2023/06/02 09:15:57;;;;;;;10.80;9.23;;;;;;;;;;5113337;28;20729;-80
2023/06/02 09:18:24;;;;;;;12.02;9.35;;;;;;;;;;5113523;28;20850;-79
2023/06/02 09:20:52;;;;;;;10.73;9.63;;;;;;;;;;5113333;28;20289;-79
2023/06/02 09:23:19;;;;;;;13.23;9.43;;;;;;;;;;5112729;28;20613;-79
2023/06/02 09:25:48;;;;;;;11.02;9.18;;;;;;;;;;5113637;28;20209;-80
2023/06/02 09:28:15;;;;;;;10.88;8.85;;;;;;;;;;5113096;28;20280;-80
2023/06/02 09:30:42;;;;;;;12.15;9.27;;;;;;;;;;5113757;28;20575;-79
2023/06/02 09:33:11;;;;;;;11.13;9.93;;;;;;;;;;5113422;28;20225;-79
2023/06/02 09:35:40;;;;;;;11.68;10.15;;;;;;;;;;5112870;27;20240;-80
2023/06/02 09:38:10;;;;;;;12.48;9.23;;;;;;;;;;5113092;28;20236;-77
2023/06/02 09:40:37;;;;;;;10.60;9.05;;;;;;;;;;5113476;28;20194;-79
2023/06/02 09:43:07;;;;;;;13.20;9.68;;;;;;;;;;5113127;28;20193;-80
2023/06/02 09:45:34;;;;;;;11.52;9.43;;;;;;;;;;5113030;28;20296;-80
2023/06/02 09:48:01;;;;;;;10.98;9.25;;;;;;;;;;5112764;28;20221;-80
2023/06/02 09:50:32;;;;;;;11.88;9.05;;;;;;;;;;5112861;28;20280;-80
2023/06/02 09:53:01;;;;;;;13.27;9.25;;;;;;;;;;5112821;28;20198;-80
2023/06/02 09:55:29;;;;;;;13.52;9.48;;;;;;;;;;5112656;28;20312;-80
2023/06/02 09:57:57;;;;;;;13.60;9.38;;;;;;;;;;5112337;28;20190;-80
2023/06/02 10:00:26;;;;;;;13.85;9.50;;;;;;;;;;5112830;28;20761;-79
2023/06/02 10:02:53;;;;;;;11.07;9.82;;;;;;;;;;5112988;28;20202;-79
2023/06/02 10:05:22;;;;;;;10.65;9.38;;;;;;;;;;5112808;28;20601;-80
2023/06/02 10:07:54;;;;;;;11.73;9.57;;;;;;;;;;5112429;28;20201;-80
2023/06/02 10:10:24;;;;;;;11.15;9.13;;;;;;;;;;5112357;28;20220;-80
2023/06/02 10:12:59;;;;;;;11.00;9.65;;;;;;;;;;5112707;28;20286;-80
2023/06/02 10:15:37;;;;;;;11.02;9.38;;;;;;;;;;5112547;28;20315;-80
2023/06/02 10:18:17;;;;;;;12.88;9.68;;;;;;;;;;5112785;28;20194;-80
2023/06/02 10:20:54;;;;;;;12.80;9.70;;;;;;;;;;5111703;28;20677;-80
2023/06/02 10:23:28;;;;;;;14.15;10.50;;;;;;;;;;5112292;28;20225;-79
2023/06/02 10:26:06;;;;;;;11.93;9.02;;;;;;;;;;5112442;28;20235;-80
2023/06/02 10:28:33;;;;;;;10.70;9.02;;;;;;;;;;5112324;28;20197;-79
2023/06/02 10:31:09;;;;;;;11.52;9.75;;;;;;;;;;5112717;28;20281;-79
2023/06/02 10:33:43;;;;;;;11.60;9.68;;;;;;;;;;5112056;28;20232;-79
2023/06/02 10:36:12;;;;;;;14.35;10.27;;;;;;;;;;5111454;28;20247;-79
2023/06/02 10:38:39;;;;;;;10.65;9.52;;;;;;;;;;5112188;28;20193;-80
2023/06/02 10:41:06;;;;;;;11.80;9.30;;;;;;;;;;5112500;28;20300;-80
2023/06/02 10:43:34;;;;;;;10.38;9.00;;;;;;;;;;5112103;28;20197;-80
2023/06/02 10:48:57;;;;;;;9.65;8.65;;;;;;;;;;5109183;27;20634;-79
2023/06/02 10:51:25;;;;;;;12.50;9.25;;;;;;;;;;5109200;28;20225;-81
2023/06/02 10:54:11;;;;;;;11.05;9.27;;;;;;;;;;5108975;28;20200;-80
2023/06/02 10:56:41;;;;;;;10.50;8.60;;;;;;;;;;5109209;28;20202;-80
2023/06/02 10:59:09;;;;;;;13.00;8.90;;;;;;;;;;5109400;28;20287;-81
2023/06/02 11:01:47;;;;;;;9.20;8.18;;;;;;;;;;5109085;28;20281;-80
2023/06/02 11:04:28;;;;;;;9.52;8.15;;;;;;;;;;5108516;28;20208;-81
2023/06/02 11:07:15;;;;;;;9.93;7.88;;;;;;;;;;5109038;28;20233;-80
2023/06/02 11:09:43;;;;;;;12.45;8.95;;;;;;;;;;5109212;28;20205;-79
2023/06/02 11:12:11;;;;;;;12.65;8.80;;;;;;;;;;5108923;28;20204;-80
2023/06/02 11:14:57;;;;;;;10.93;8.73;;;;;;;;;;5108826;28;20648;-80
2023/06/02 11:17:30;;;;;;;13.80;9.02;;;;;;;;;;5108730;28;20193;-80
2023/06/02 11:19:59;;;;;;;10.57;7.75;;;;;;;;;;5108144;28;20201;-80
2023/06/02 11:22:26;;;;;;;11.73;8.77;;;;;;;;;;5108582;28;20229;-80
2023/06/02 11:24:54;;;;;;;9.85;8.85;;;;;;;;;;5108884;28;20272;-80
2023/06/02 11:27:21;;;;;;;13.63;9.05;;;;;;;;;;5106299;28;20218;-80
2023/06/02 11:30:04;;;;;;;10.63;8.13;;;;;;;;;;5108032;28;20194;-80
2023/06/02 11:32:32;;;;;;;10.93;8.73;;;;;;;;;;5108219;28;20205;-80
2023/06/02 11:35:02;;;;;;;9.63;8.38;;;;;;;;;;5105700;28;20259;-81
2023/06/02 11:37:29;;;;;;;12.13;8.32;;;;;;;;;;5105762;28;20301;-81
2023/06/02 11:39:57;;;;;;;12.70;8.10;;;;;;;;;;5106532;28;20201;-81
2023/06/02 11:42:37;;;;;;;10.70;8.00;;;;;;;;;;5106866;28;20201;-80
2023/06/02 11:45:04;;;;;;;9.63;7.50;;;;;;;;;;5104849;28;20284;-80
2023/06/02 11:47:32;;;;;;;10.73;7.68;;;;;;;;;;5107090;28;20247;-79
2023/06/02 11:49:59;;;;;;;8.18;7.00;;;;;;;;;;5091985;28;20290;-81
2023/06/02 11:52:27;;;;;;;9.15;7.07;;;;;;;;;;5107994;28;20305;-80
2023/06/02 11:54:56;;;;;;;13.05;7.53;;;;;;;;;;5108071;28;20288;-81
2023/06/02 11:57:28;;;;;;;10.02;7.82;;;;;;;;;;5107946;28;20194;-81
2023/06/02 12:00:19;;;;;;;9.05;6.97;;;;;;;;;;5106352;28;20205;-81
2023/06/02 12:02:51;;;;;;;8.52;7.32;;;;;;;;;;5081143;28;20762;-80
2023/06/02 12:05:31;;;;;;;9.68;7.60;;;;;;;;;;5094499;28;20241;-80
2023/06/02 12:08:08;;;;;;;10.77;7.70;;;;;;;;;;5092779;28;20321;-81
2023/06/02 12:10:35;;;;;;;10.70;7.13;;;;;;;;;;5087392;28;20202;-81
2023/06/02 12:13:02;;;;;;;10.73;7.13;;;;;;;;;;5092996;28;20264;-80
2023/06/02 12:15:34;;;;;;;9.05;7.25;;;;;;;;;;5096617;28;20297;-81
2023/06/02 12:18:04;;;;;;;8.07;6.68;;;;;;;;;;5090992;28;20294;-81
2023/06/02 12:20:39;;;;;;;9.45;7.53;;;;;;;;;;5093538;28;20248;-80
2023/06/02 12:23:07;;;;;;;9.27;7.07;;;;;;;;;;5093904;28;20276;-80
2023/06/02 12:25:34;;;;;;;9.35;7.15;;;;;;;;;;5091755;28;20220;-81
2023/06/02 12:28:08;;;;;;;8.65;6.72;;;;;;;;;;5092457;28;20229;-80
2023/06/02 12:30:35;;;;;;;10.13;7.00;;;;;;;;;;5089547;28;20203;-80
2023/06/02 12:33:06;;;;;;;8.38;6.57;;;;;;;;;;5092927;28;20295;-81
2023/06/02 12:35:33;;;;;;;8.48;6.57;;;;;;;;;;5094157;28;20286;-81
2023/06/02 12:38:00;;;;;;;10.45;6.80;;;;;;;;;;5092501;28;20298;-80
2023/06/02 12:40:29;;;;;;;10.80;6.65;;;;;;;;;;5075108;28;20231;-81
2023/06/02 12:42:56;;;;;;;7.63;6.13;;;;;;;;;;5073142;28;20294;-81
2023/06/02 12:45:23;;;;;;;8.82;6.55;;;;;;;;;;5078654;28;20198;-82
2023/06/02 12:47:52;;;;;;;8.75;6.03;;;;;;;;;;5093346;28;20240;-80
2023/06/02 12:50:20;;;;;;;6.80;6.10;;;;;;;;;;5093789;28;20292;-81
2023/06/02 12:52:47;;;;;;;5.80;4.97;;;;;;;;;;5078890;28;20283;-81
2023/06/02 12:55:15;;;;;;;6.72;5.63;;;;;;;;;;5093047;28;20282;-80
2023/06/02 12:57:43;;;;;;;7.13;5.70;;;;;;;;;;5093212;28;20252;-81
2023/06/02 13:00:11;;;;;;;7.45;5.50;;;;;;;;;;5091278;28;20286;-80
2023/06/02 13:02:40;;;;;;;7.90;5.85;;;;;;;;;;5088287;28;20214;-81
2023/06/02 13:05:07;;;;;;;8.95;5.53;;;;;;;;;;5090881;28;20194;-81
2023/06/02 13:07:36;;;;;;;7.55;5.90;;;;;;;;;;5092902;28;20221;-80
2023/06/02 13:10:03;;;;;;;7.82;4.93;;;;;;;;;;5082085;28;20295;-80
2023/06/02 13:12:31;;;;;;;9.23;5.50;;;;;;;;;;5090463;28;20700;-81
2023/06/02 13:14:59;;;;;;;7.88;4.90;;;;;;;;;;5092539;28;20198;-81
2023/06/02 13:17:27;;;;;;;6.07;4.38;;;;;;;;;;5093668;28;20228;-80
2023/06/02 13:19:54;;;;;;;6.72;5.10;;;;;;;;;;5092816;28;20220;-81
2023/06/02 13:22:21;;;;;;;6.90;5.28;;;;;;;;;;5093224;28;20206;-80
2023/06/02 13:24:49;;;;;;;5.60;4.55;;;;;;;;;;5094049;28;20202;-80
2023/06/02 13:27:16;;;;;;;7.28;4.53;;;;;;;;;;5093740;28;20631;-80
2023/06/02 13:29:43;;;;;;;6.43;4.57;;;;;;;;;;5093610;28;20202;-80
2023/06/02 13:32:12;;;;;;;6.22;4.60;;;;;;;;;;5093702;28;20289;-81
2023/06/02 13:34:42;;;;;;;8.10;4.60;;;;;;;;;;5092369;28;20621;-80
2023/06/02 13:37:09;;;;;;;6.07;4.57;;;;;;;;;;5092120;28;20651;-80
2023/06/02 13:39:36;;;;;;;5.60;4.80;;;;;;;;;;5092268;28;20749;-81
2023/06/02 13:42:03;;;;;;;5.15;4.05;;;;;;;;;;5092760;28;20205;-80
2023/06/02 13:44:30;;;;;;;5.30;4.40;;;;;;;;;;5092070;28;20198;-80
2023/06/02 13:46:57;;;;;;;5.97;4.43;;;;;;;;;;5092005;28;20241;-81
2023/06/02 13:49:26;;;;;;;5.63;4.68;;;;;;;;;;5092378;28;20222;-80
2023/06/02 13:51:53;;;;;;;5.72;4.60;;;;;;;;;;5092203;28;20591;-81
2023/06/02 13:54:20;;;;;;;5.25;4.18;;;;;;;;;;5091928;28;20718;-80
2023/06/02 13:56:48;;;;;;;7.30;4.50;;;;;;;;;;5091911;28;20722;-79
2023/06/02 13:59:16;;;;;;;6.28;3.65;;;;;;;;;;5092129;28;20296;-80
2023/06/02 14:01:43;;;;;;;4.68;3.53;;;;;;;;;;5092185;28;20198;-80
2023/06/02 14:04:10;;;;;;;5.00;3.60;;;;;;;;;;5091550;28;20641;-80
2023/06/02 14:06:39;;;;;;;7.13;3.90;;;;;;;;;;5091660;28;20694;-80
2023/06/02 14:09:07;;;;;;;5.88;4.30;;;;;;;;;;5091597;28;20222;-81
2023/06/02 14:11:36;;;;;;;5.35;3.67;;;;;;;;;;5091602;28;20285;-79
2023/06/02 14:14:03;;;;;;;4.90;3.63;;;;;;;;;;5091183;28;20320;-80
2023/06/02 14:16:31;;;;;;;6.35;3.60;;;;;;;;;;5092367;28;20816;-81
2023/06/02 14:18:58;;;;;;;5.07;3.50;;;;;;;;;;5091855;28;20301;-80
2023/06/02 14:21:25;;;;;;;4.53;3.63;;;;;;;;;;5091098;28;20663;-80
2023/06/02 14:23:54;;;;;;;5.78;3.42;;;;;;;;;;5091318;28;20209;-81
2023/06/02 14:26:21;;;;;;;6.00;3.90;;;;;;;;;;5087993;28;20196;-80
2023/06/02 14:28:49;;;;;;;4.78;3.53;;;;;;;;;;5087531;28;20317;-80
2023/06/02 14:31:16;;;;;;;5.88;3.50;;;;;;;;;;5091098;28;20846;-80
2023/06/02 14:33:43;;;;;;;3.67;3.08;;;;;;;;;;5091176;28;20209;-79
2023/06/02 14:36:11;;;;;;;4.35;3.58;;;;;;;;;;5090232;28;20268;-80